createdAt,value
2022-11-01T00:01:02.034Z,59.85
2022-11-01T00:03:51.919Z,59.67
2022-11-01T00:06:41.874Z,59.58
2022-11-01T00:09:31.925Z,59.54
2022-11-01T00:12:22.027Z,59.52
2022-11-01T00:15:14.662Z,59.57
2022-11-01T00:18:04.474Z,59.71
2022-11-01T00:20:54.846Z,59.82
2022-11-01T00:23:45.245Z,59.93
2022-11-01T00:26:35.723Z,59.97
2022-11-01T00:29:26.152Z,60.03
2022-11-01T00:32:15.887Z,60.12
2022-11-01T00:35:06.740Z,60.21
2022-11-01T00:37:56.903Z,60.27
2022-11-01T00:40:47.643Z,60.30
2022-11-01T00:43:38.088Z,60.28
2022-11-01T00:46:28.173Z,60.14
2022-11-01T00:49:21.205Z,60.03
2022-11-01T00:52:10.944Z,59.98
2022-11-01T00:55:01.242Z,59.98
2022-11-01T00:57:51.846Z,59.90
2022-11-01T01:00:42.310Z,59.98
2022-11-01T01:03:32.566Z,60.00
2022-11-01T01:06:22.988Z,60.01
2022-11-01T01:09:14.847Z,60.03
2022-11-01T01:12:06.311Z,60.14
2022-11-01T01:14:56.137Z,60.29
2022-11-01T01:17:46.403Z,60.37
2022-11-01T01:20:37.301Z,60.43
2022-11-01T01:23:27.087Z,60.47
2022-11-01T01:26:17.112Z,60.44
2022-11-01T01:29:07.750Z,60.41
2022-11-01T01:31:57.251Z,60.52
2022-11-01T01:34:47.777Z,60.49
2022-11-01T01:37:38.532Z,60.50
2022-11-01T01:40:28.709Z,60.48
2022-11-01T01:43:19.271Z,60.46
2022-11-01T01:46:10.868Z,60.43
2022-11-01T01:49:02.009Z,60.58
2022-11-01T01:51:52.725Z,60.60
2022-11-01T01:54:43.054Z,60.72
2022-11-01T01:57:33.698Z,60.73
2022-11-01T02:00:24.230Z,60.62
2022-11-01T02:03:16.015Z,60.62
2022-11-01T02:06:13.774Z,60.61
2022-11-01T02:09:06.977Z,60.70
2022-11-01T02:11:57.357Z,60.65
2022-11-01T02:14:48.817Z,60.68
2022-11-01T02:17:52.222Z,60.67
2022-11-01T02:20:55.054Z,60.74
2022-11-01T02:24:16.165Z,60.77
2022-11-01T02:27:13.611Z,60.86
2022-11-01T02:30:16.395Z,60.86
2022-11-01T02:33:23.182Z,60.97
2022-11-01T02:36:22.353Z,61.02
2022-11-01T02:39:19.248Z,61.03
2022-11-01T02:42:15.887Z,61.04
2022-11-01T02:45:11.844Z,61.06
2022-11-01T02:48:03.318Z,61.11
2022-11-01T02:50:58.124Z,61.10
2022-11-01T02:53:48.710Z,61.11
2022-11-01T02:56:40.942Z,61.10
2022-11-01T02:59:31.382Z,61.16
2022-11-01T03:02:39.866Z,61.18
2022-11-01T03:05:40.623Z,61.23
2022-11-01T03:08:34.414Z,61.31
2022-11-01T03:11:35.073Z,61.35
2022-11-01T03:14:33.516Z,61.33
2022-11-01T03:17:28.683Z,61.37
2022-11-01T03:20:25.798Z,61.34
2022-11-01T03:23:20.236Z,61.39
2022-11-01T03:26:12.113Z,61.51
2022-11-01T03:29:06.020Z,61.50
2022-11-01T03:31:58.483Z,61.54
2022-11-01T03:34:49.186Z,61.59
2022-11-01T03:37:41.018Z,61.55
2022-11-01T03:40:33.255Z,61.52
2022-11-01T03:43:27.284Z,61.57
2022-11-01T03:46:19.076Z,61.58
2022-11-01T03:49:09.577Z,61.56
2022-11-01T03:52:00.113Z,61.60
2022-11-01T03:54:50.567Z,61.54
2022-11-01T03:57:43.305Z,61.60
2022-11-01T04:00:37.099Z,61.70
2022-11-01T04:03:27.702Z,61.77
2022-11-01T04:06:18.440Z,61.75
2022-11-01T04:09:10.097Z,61.82
2022-11-01T04:12:00.544Z,61.88
2022-11-01T04:15:09.118Z,61.83
2022-11-01T04:18:30.787Z,61.86
2022-11-01T04:21:23.473Z,61.88
2022-11-01T04:24:21.249Z,61.87
2022-11-01T04:27:12.387Z,61.84
2022-11-01T04:30:02.505Z,61.97
2022-11-01T04:32:52.673Z,62.02
2022-11-01T04:35:43.547Z,62.02
2022-11-01T04:38:33.534Z,62.03
2022-11-01T04:41:24.598Z,62.08
2022-11-01T04:44:14.635Z,61.99
2022-11-01T04:47:04.703Z,62.05
2022-11-01T04:49:54.706Z,62.12
2022-11-01T04:52:45.128Z,62.02
2022-11-01T04:55:35.595Z,61.87
2022-11-01T04:58:25.503Z,61.73
2022-11-01T05:01:16.243Z,61.73
2022-11-01T05:04:07.091Z,61.80
2022-11-01T05:06:57.506Z,61.87
2022-11-01T05:09:48.142Z,61.88
2022-11-01T05:12:38.999Z,62.01
2022-11-01T05:15:28.904Z,62.06
2022-11-01T05:18:19.567Z,62.11
2022-11-01T05:21:09.993Z,62.14
2022-11-01T05:23:59.894Z,62.22
2022-11-01T05:26:50.800Z,62.22
2022-11-01T05:29:40.555Z,62.22
2022-11-01T05:32:30.511Z,62.22
2022-11-01T05:35:21.284Z,62.14
2022-11-01T05:38:11.572Z,62.22
2022-11-01T05:41:04.728Z,62.22
2022-11-01T05:43:55.710Z,62.15
2022-11-01T05:46:46.467Z,62.08
2022-11-01T05:49:36.837Z,62.17
2022-11-01T05:52:27.476Z,62.15
2022-11-01T05:55:18.899Z,62.21
2022-11-01T05:58:10.281Z,62.20
2022-11-01T06:01:03.101Z,62.17
2022-11-01T06:03:54.112Z,62.12
2022-11-01T06:06:44.332Z,62.06
2022-11-01T06:09:34.848Z,62.05
2022-11-01T06:12:26.616Z,61.97
2022-11-01T06:15:17.347Z,61.87
2022-11-01T06:18:08.497Z,61.95
2022-11-01T06:21:01.072Z,61.89
2022-11-01T06:23:51.732Z,61.79
2022-11-01T06:26:42.384Z,61.81
2022-11-01T06:29:32.729Z,61.94
2022-11-01T06:32:22.923Z,62.80
2022-11-01T06:35:13.949Z,62.09
2022-11-01T06:38:07.131Z,61.51
2022-11-01T06:40:57.697Z,61.13
2022-11-01T06:43:49.377Z,60.83
2022-11-01T06:46:39.605Z,60.41
2022-11-01T06:49:30.647Z,60.32
2022-11-01T06:52:20.997Z,60.36
2022-11-01T06:55:12.055Z,60.31
2022-11-01T06:58:04.049Z,60.05
2022-11-01T07:00:54.787Z,60.12
2022-11-01T07:03:44.532Z,59.95
2022-11-01T07:06:34.771Z,59.73
2022-11-01T07:09:25.568Z,59.65
2022-11-01T07:12:15.568Z,59.50
2022-11-01T07:15:08.045Z,59.41
2022-11-01T07:18:00.669Z,59.30
2022-11-01T07:20:50.559Z,59.44
2022-11-01T07:23:41.434Z,59.66
2022-11-01T07:26:31.921Z,59.53
2022-11-01T07:29:22.575Z,59.58
2022-11-01T07:32:12.485Z,59.70
2022-11-01T07:35:02.554Z,59.84
2022-11-01T07:37:54.873Z,59.90
2022-11-01T07:40:49.826Z,59.96
2022-11-01T07:43:43.049Z,60.22
2022-11-01T07:46:33.816Z,60.29
2022-11-01T07:49:24.479Z,60.30
2022-11-01T07:52:14.640Z,60.40
2022-11-01T07:55:05.271Z,60.42
2022-11-01T07:57:55.842Z,60.24
2022-11-01T08:00:46.844Z,60.18
2022-11-01T08:03:37.036Z,60.24
2022-11-01T08:06:27.031Z,60.49
2022-11-01T08:09:17.193Z,60.73
2022-11-01T08:12:09.961Z,60.60
2022-11-01T08:15:01.687Z,60.66
2022-11-01T08:17:51.955Z,60.41
2022-11-01T08:20:42.554Z,60.16
2022-11-01T08:23:32.331Z,60.32
2022-11-01T08:26:22.817Z,60.27
2022-11-01T08:29:12.886Z,60.40
2022-11-01T08:32:03.921Z,60.46
2022-11-01T08:34:53.948Z,60.36
2022-11-01T08:37:51.288Z,60.31
2022-11-01T08:40:41.710Z,60.61
2022-11-01T08:43:32.859Z,60.77
2022-11-01T08:46:24.574Z,60.34
2022-11-01T08:49:16.024Z,60.23
2022-11-01T08:52:06.028Z,60.18
2022-11-01T08:54:56.330Z,60.27
2022-11-01T08:57:46.405Z,60.30
2022-11-01T09:00:37.003Z,60.40
2022-11-01T09:03:28.991Z,60.36
2022-11-01T09:06:19.516Z,60.38
2022-11-01T09:09:10.829Z,60.42
2022-11-01T09:12:00.809Z,60.41
2022-11-01T09:14:51.021Z,60.32
2022-11-01T09:17:40.753Z,60.42
2022-11-01T09:20:30.565Z,60.51
2022-11-01T09:23:21.714Z,60.57
2022-11-01T09:26:14.510Z,60.53
2022-11-01T09:29:04.938Z,60.48
2022-11-01T09:31:55.874Z,60.42
2022-11-01T09:34:49.083Z,60.52
2022-11-01T09:37:39.389Z,60.57
2022-11-01T09:40:36.317Z,60.69
2022-11-01T09:43:31.630Z,60.76
2022-11-01T09:46:26.071Z,60.78
2022-11-01T09:49:24.518Z,60.88
2022-11-01T09:52:21.085Z,61.08
2022-11-01T09:55:16.990Z,61.10
2022-11-01T09:58:17.137Z,61.18
2022-11-01T10:01:21.675Z,61.27
2022-11-01T10:04:30.613Z,61.42
2022-11-01T10:07:27.838Z,61.52
2022-11-01T10:10:36.640Z,61.56
2022-11-01T10:13:40.674Z,61.66
2022-11-01T10:16:41.543Z,61.92
2022-11-01T10:19:35.556Z,61.97
2022-11-01T10:22:31.024Z,61.99
2022-11-01T10:25:24.792Z,61.86
2022-11-01T10:28:22.160Z,61.60
2022-11-01T10:31:20.917Z,61.78
2022-11-01T10:34:22.982Z,61.81
2022-11-01T10:37:22.805Z,62.08
2022-11-01T10:40:22.193Z,62.30
2022-11-01T10:43:18.329Z,62.51
2022-11-01T10:46:14.594Z,62.68
2022-11-01T10:49:07.860Z,62.83
2022-11-01T10:52:04.341Z,62.65
2022-11-01T10:54:57.649Z,62.12
2022-11-01T10:57:53.115Z,61.79
2022-11-01T11:00:45.233Z,61.81
2022-11-01T11:03:35.780Z,62.00
2022-11-01T11:06:26.152Z,62.10
2022-11-01T11:09:25.319Z,62.35
2022-11-01T11:12:20.207Z,62.58
2022-11-01T11:15:21.602Z,62.66
2022-11-01T11:18:23.026Z,62.85
2022-11-01T11:21:15.108Z,63.12
2022-11-01T11:24:07.249Z,63.21
2022-11-01T11:26:59.901Z,63.61
2022-11-01T11:29:52.245Z,63.57
2022-11-01T11:32:49.579Z,63.70
2022-11-01T11:35:41.141Z,63.76
2022-11-01T11:38:46.735Z,63.86
2022-11-01T11:41:39.446Z,64.04
2022-11-01T11:44:42.902Z,64.13
2022-11-01T11:47:39.564Z,64.27
2022-11-01T11:50:35.481Z,64.45
2022-11-01T11:53:26.084Z,64.41
2022-11-01T11:56:22.953Z,64.51
2022-11-01T11:59:26.421Z,64.63
2022-11-01T12:02:23.718Z,64.83
2022-11-01T12:05:19.676Z,64.89
2022-11-01T12:08:26.961Z,64.99
2022-11-01T12:11:18.402Z,65.11
2022-11-01T12:14:21.954Z,65.10
2022-11-01T12:17:34.570Z,65.10
2022-11-01T12:20:27.009Z,65.39
2022-11-01T12:23:26.879Z,65.10
2022-11-01T12:26:20.953Z,64.77
2022-11-01T12:29:28.246Z,64.70
2022-11-01T12:32:25.189Z,64.83
2022-11-01T12:35:23.491Z,64.81
2022-11-01T12:38:32.727Z,65.04
2022-11-01T12:41:32.514Z,65.25
2022-11-01T12:44:42.683Z,65.29
2022-11-01T12:47:38.722Z,65.31
2022-11-01T12:50:36.283Z,65.21
2022-11-01T12:53:30.496Z,65.17
2022-11-01T12:56:21.548Z,65.10
2022-11-01T12:59:14.910Z,65.12
2022-11-01T13:02:18.167Z,65.14
2022-11-01T13:05:15.670Z,65.05
2022-11-01T13:08:17.963Z,65.18
2022-11-01T13:11:19.603Z,65.10
2022-11-01T13:14:33.651Z,64.99
2022-11-01T13:17:31.515Z,64.90
2022-11-01T13:20:51.425Z,64.84
2022-11-01T13:23:45.527Z,64.83
2022-11-01T13:26:43.308Z,64.76
2022-11-01T13:29:42.470Z,64.71
2022-11-01T13:32:39.525Z,64.70
2022-11-01T13:35:43.470Z,64.68
2022-11-01T13:38:43.663Z,64.55
2022-11-01T13:41:40.618Z,64.51
2022-11-01T13:44:34.694Z,64.54
2022-11-01T13:47:43.720Z,64.52
2022-11-01T13:51:03.954Z,64.40
2022-11-01T13:54:00.311Z,64.42
2022-11-01T13:57:00.013Z,64.04
2022-11-01T13:59:56.863Z,63.42
2022-11-01T14:02:58.155Z,62.91
2022-11-01T14:06:09.452Z,62.76
2022-11-01T14:09:29.835Z,62.72
2022-11-01T14:12:43.335Z,62.56
2022-11-01T14:15:39.863Z,62.25
2022-11-01T14:18:51.195Z,62.42
2022-11-01T14:21:47.342Z,62.45
2022-11-01T14:24:56.078Z,62.45
2022-11-01T14:27:50.668Z,62.03
2022-11-01T14:30:45.965Z,62.47
2022-11-01T14:33:37.340Z,62.59
2022-11-01T14:36:30.426Z,62.59
2022-11-01T14:39:23.588Z,62.59
2022-11-01T14:42:20.961Z,62.61
2022-11-01T14:45:25.635Z,62.53
2022-11-01T14:48:20.743Z,62.27
2022-11-01T14:51:18.743Z,62.29
2022-11-01T14:54:18.266Z,62.40
2022-11-01T14:57:26.264Z,62.46
2022-11-01T15:00:28.835Z,62.33
2022-11-01T15:03:20.453Z,62.57
2022-11-01T15:06:26.099Z,62.60
2022-11-01T15:09:23.492Z,62.68
2022-11-01T15:12:14.022Z,62.60
2022-11-01T15:15:04.796Z,62.42
2022-11-01T15:17:58.357Z,62.49
2022-11-01T15:20:54.632Z,62.57
2022-11-01T15:23:48.267Z,62.71
2022-11-01T15:26:38.636Z,62.83
2022-11-01T15:29:28.817Z,62.85
2022-11-01T15:32:27.867Z,62.91
2022-11-01T15:35:26.108Z,62.94
2022-11-01T15:38:21.304Z,62.99
2022-11-01T15:41:27.283Z,62.86
2022-11-01T15:44:24.601Z,62.56
2022-11-01T15:47:20.750Z,62.63
2022-11-01T15:50:13.611Z,62.49
2022-11-01T15:53:09.921Z,62.46
2022-11-01T15:56:06.301Z,62.47
2022-11-01T15:59:02.134Z,62.43
2022-11-01T16:01:55.765Z,62.55
2022-11-01T16:04:49.887Z,62.79
2022-11-01T16:07:40.631Z,62.68
2022-11-01T16:10:33.082Z,62.50
2022-11-01T16:13:23.714Z,62.56
2022-11-01T16:16:15.009Z,62.49
2022-11-01T16:19:06.387Z,62.50
2022-11-01T16:21:57.109Z,62.40
2022-11-01T16:24:48.050Z,62.55
2022-11-01T16:27:52.280Z,62.39
2022-11-01T16:30:45.733Z,62.68
2022-11-01T16:33:47.150Z,62.75
2022-11-01T16:36:42.171Z,63.04
2022-11-01T16:39:34.117Z,63.04
2022-11-01T16:42:25.599Z,63.09
2022-11-01T16:45:16.538Z,62.92
2022-11-01T16:48:07.527Z,62.73
2022-11-01T16:50:59.548Z,62.68
2022-11-01T16:53:50.687Z,62.67
2022-11-01T16:56:46.256Z,62.76
2022-11-01T16:59:39.504Z,62.92
2022-11-01T17:02:31.681Z,63.09
2022-11-01T17:05:24.675Z,63.33
2022-11-01T17:08:15.618Z,63.56
2022-11-01T17:11:05.900Z,63.65
2022-11-01T17:13:55.972Z,63.83
2022-11-01T17:16:48.142Z,63.97
2022-11-01T17:19:42.193Z,64.12
2022-11-01T17:22:37.798Z,64.24
2022-11-01T17:25:29.831Z,64.29
2022-11-01T17:28:21.437Z,64.44
2022-11-01T17:31:11.504Z,64.53
2022-11-01T17:34:02.114Z,64.57
2022-11-01T17:36:53.858Z,64.62
2022-11-01T17:39:44.717Z,64.88
2022-11-01T17:42:35.823Z,65.06
2022-11-01T17:45:27.286Z,64.78
2022-11-01T17:48:18.049Z,64.23
2022-11-01T17:51:10.319Z,64.24
2022-11-01T17:54:00.701Z,64.37
2022-11-01T17:56:51.616Z,64.49
2022-11-01T17:59:42.492Z,64.48
2022-11-01T18:02:33.331Z,64.58
2022-11-01T18:05:23.851Z,64.57
2022-11-01T18:08:20.000Z,64.67
2022-11-01T18:11:16.134Z,64.77
2022-11-01T18:14:14.263Z,64.76
2022-11-01T18:17:19.558Z,64.95
2022-11-01T18:20:16.566Z,65.05
2022-11-01T18:23:12.312Z,65.02
2022-11-01T18:26:02.657Z,65.00
2022-11-01T18:28:55.657Z,64.98
2022-11-01T18:31:54.501Z,64.96
2022-11-01T18:34:49.288Z,65.04
2022-11-01T18:37:45.665Z,64.98
2022-11-01T18:40:52.253Z,65.12
2022-11-01T18:43:43.145Z,65.14
2022-11-01T18:46:43.484Z,65.13
2022-11-01T18:49:34.421Z,65.25
2022-11-01T18:52:25.044Z,65.30
2022-11-01T18:55:16.550Z,65.34
2022-11-01T18:58:15.949Z,65.44
2022-11-01T19:01:16.092Z,65.42
2022-11-01T19:04:17.273Z,65.52
2022-11-01T19:07:14.082Z,65.57
2022-11-01T19:10:15.137Z,65.60
2022-11-01T19:13:11.066Z,65.69
2022-11-01T19:16:01.884Z,65.74
2022-11-01T19:18:52.676Z,65.68
2022-11-01T19:21:43.012Z,65.76
2022-11-01T19:24:40.590Z,65.78
2022-11-01T19:27:31.422Z,65.81
2022-11-01T19:30:25.012Z,65.82
2022-11-01T19:33:25.723Z,65.81
2022-11-01T19:36:19.076Z,65.85
2022-11-01T19:39:22.907Z,65.80
2022-11-01T19:42:22.539Z,65.89
2022-11-01T19:45:30.848Z,65.91
2022-11-01T19:48:23.965Z,65.91
2022-11-01T19:51:20.930Z,65.95
2022-11-01T19:54:13.749Z,65.98
2022-11-01T19:57:11.291Z,66.03
2022-11-01T20:00:16.727Z,66.10
2022-11-01T20:03:16.811Z,66.08
2022-11-01T20:06:14.934Z,66.10
2022-11-01T20:09:10.569Z,66.16
2022-11-01T20:12:00.295Z,66.22
2022-11-01T20:14:50.637Z,66.21
2022-11-01T20:17:41.320Z,66.24
2022-11-01T20:20:32.018Z,66.19
2022-11-01T20:23:26.672Z,66.24
2022-11-01T20:26:17.029Z,66.22
2022-11-01T20:29:08.083Z,66.18
2022-11-01T20:31:57.823Z,66.10
2022-11-01T20:34:47.796Z,66.04
2022-11-01T20:37:37.923Z,65.99
2022-11-01T20:40:28.078Z,65.99
2022-11-01T20:43:18.539Z,66.00
2022-11-01T20:46:09.012Z,65.93
2022-11-01T20:48:59.426Z,65.86
2022-11-01T20:51:49.354Z,65.77
2022-11-01T20:54:38.942Z,65.67
2022-11-01T20:57:28.829Z,65.66
2022-11-01T21:00:19.268Z,65.61
2022-11-01T21:03:15.989Z,65.63
2022-11-01T21:06:11.891Z,65.66
2022-11-01T21:09:03.947Z,65.60
2022-11-01T21:11:56.044Z,65.50
2022-11-01T21:14:46.013Z,65.41
2022-11-01T21:17:35.716Z,65.43
2022-11-01T21:20:26.842Z,65.37
2022-11-01T21:23:28.102Z,65.22
2022-11-01T21:26:20.948Z,65.11
2022-11-01T21:29:24.768Z,64.96
2022-11-01T21:32:27.216Z,64.89
2022-11-01T21:35:42.248Z,64.81
2022-11-01T21:38:41.961Z,64.70
2022-11-01T21:41:44.330Z,64.62
2022-11-01T21:44:40.438Z,64.65
2022-11-01T21:47:31.735Z,64.66
2022-11-01T21:50:22.004Z,64.72
2022-11-01T21:53:11.659Z,64.74
2022-11-01T21:56:01.612Z,64.76
2022-11-01T21:58:51.894Z,64.75
2022-11-01T22:01:45.437Z,64.88
2022-11-01T22:04:35.740Z,64.93
2022-11-01T22:07:26.243Z,64.92
2022-11-01T22:10:16.318Z,64.90
2022-11-01T22:13:06.991Z,64.88
2022-11-01T22:15:59.317Z,64.82
2022-11-01T22:18:49.451Z,64.85
2022-11-01T22:21:39.715Z,64.78
2022-11-01T22:24:30.109Z,64.73
2022-11-01T22:27:20.161Z,64.73
2022-11-01T22:30:13.305Z,64.75
2022-11-01T22:33:03.602Z,64.76
2022-11-01T22:35:54.087Z,64.74
2022-11-01T22:38:45.990Z,64.69
2022-11-01T22:41:39.228Z,64.61
2022-11-01T22:44:32.620Z,64.58
2022-11-01T22:47:28.340Z,64.62
2022-11-01T22:50:29.582Z,64.53
2022-11-01T22:53:23.702Z,64.61
2022-11-01T22:56:15.336Z,64.61
2022-11-01T22:59:05.174Z,64.60
2022-11-01T23:02:03.025Z,64.69
2022-11-01T23:05:02.288Z,64.71
2022-11-01T23:07:54.084Z,64.69
2022-11-01T23:10:47.778Z,64.81
2022-11-01T23:13:57.341Z,64.92
2022-11-01T23:16:47.891Z,64.91
2022-11-01T23:22:34.162Z,64.79
2022-11-01T23:25:24.098Z,64.75
2022-11-01T23:28:15.001Z,64.64
2022-11-01T23:31:06.274Z,64.69
2022-11-01T23:33:56.800Z,64.76
2022-11-01T23:36:47.400Z,64.78
2022-11-01T23:39:38.053Z,64.80
2022-11-01T23:42:29.153Z,64.70
2022-11-01T23:45:26.329Z,64.79
2022-11-01T23:48:17.283Z,64.81
2022-11-01T23:51:08.001Z,64.83
2022-11-01T23:54:00.424Z,64.86
2022-11-01T23:56:50.704Z,64.86
2022-11-01T23:59:41.411Z,64.96
